< < Back
Terminal Aerodrome Forecast


Current Version              Previous Versions:   1  2  3  4  5  6  7  8  9  

Terminal Aerodrome Forecast

468
FTUS42 KFFC 210000 AAA
TAFATL
TAF AMD
KATL 210036Z 2101/2206 26003KT P6SM FEW080 SCT120
     FM211000 29005KT P6SM FEW150
     FM211600 32011G18KT P6SM FEW250
     FM220100 33007KT P6SM SKC=

Latest METAR

784
SAUS70 KWBC 210500
MTRATL
METAR KATL 210452Z 30004KT 10SM CLR 16/10 A3002 RMK AO2 SLP159 T01610100
402280100


USA.gov is the U.S. government's official web portal to all federal, state and local government web resources and services.